KDXR/DXR METAR and TAF weather

Enter ICAO airport designator
Station Type Date Time Source
KDXR METAR 2019/06/16 06:53 UTC NOAA

KDXR 160653Z AUTO 00000KT 9SM -RA OVC110 18/15 A2996 RMK AO2 SLP140 P0003 T01780150


Station Type Date Time Source
KDXR Decoded METAR 2019/06/16 06:53 UTC NOAA

DANBURY MUNICIPAL AIRPORT, CT, United States (KDXR) 41-22N 073-29W 139M
Jun 16, 2019 - 02:53 AM EDT / 2019.06.16 0653 UTC
Wind: Calm:0
Visibility: 9 mile(s):0
Sky conditions: overcast
Weather: light rain
Precipitation last hour: 0.03 inches
Temperature: 64.0 F (17.8 C)
Dew Point: 59.0 F (15.0 C)
Relative Humidity: 83%
Pressure (altimeter): 29.96 in. Hg (1014 hPa)
ob: KDXR 160653Z AUTO 00000KT 9SM -RA OVC110 18/15 A2996 RMK AO2 SLP140 P0003 T01780150
cycle: 7

Station Type Date Time Source
KDXR TAF UTC NOAA

Error!

Example: see airport list